This is the latest recevied weather packets stored in our database for station/object K2BIG. If no packets are shown the sender has not sent any weather packets the latest 1 day(s).
| Time | Temp. | Humidity | Pressure | Rain* | Wind** | Luminosity | Snow |
|---|---|---|---|---|---|---|---|
| 1778025015 | 24.44° C | 42% | 1007.3 hPa | 0 mm | - | - | - |
| 1778020515 | 26.11° C | 38% | 1006.3 hPa | 0 mm | - | - | - |
| 1778019917 | 26.11° C | 39% | 1006.2 hPa | 0 mm | - | - | - |
| 1778019617 | 26.67° C | 38% | 1006.2 hPa | 0 mm | - | - | - |
| 1778018717 | 27.22° C | 36% | 1006.1 hPa | 0 mm | - | - | - |
| 1778017817 | 27.78° C | 35% | 1005.8 hPa | 0 mm | - | - | - |
| 1778017517 | 27.78° C | 35% | 1005.7 hPa | 0 mm | - | - | - |
| 1778016917 | 27.78° C | 35% | 1005.8 hPa | 0 mm | - | - | - |
| 1778015717 | 28.33° C | 34% | 1005.9 hPa | 0 mm | - | - | - |
| 1778015417 | 28.33° C | 34% | 1005.8 hPa | 0 mm | - | - | - |
| 1778015117 | 28.89° C | 35% | 1005.7 hPa | 0 mm | - | - | - |
| 1778014817 | 28.89° C | 34% | 1005.6 hPa | 0 mm | - | - | - |
| 1778014517 | 28.89° C | 33% | 1005.6 hPa | 0 mm | - | - | - |
| 1778013917 | 29.44° C | 34% | 1005.4 hPa | 0 mm | - | - | - |
| 1778013617 | 29.44° C | 34% | 1005.5 hPa | 0 mm | - | - | - |
| 1778013017 | 29.44° C | 35% | 1005.6 hPa | 0 mm | - | - | - |
| 1778012718 | 29.44° C | 35% | 1005.5 hPa | 0 mm | - | - | - |
| 1778012417 | 28.89° C | 36% | 1005.6 hPa | 0 mm | - | - | - |
| 1778012117 | 28.89° C | 36% | 1005.6 hPa | 0 mm | - | - | - |
| 1778011817 | 28.89° C | 36% | 1005.8 hPa | 0 mm | - | - | - |
| 1778011217 | 28.89° C | 37% | 1006.1 hPa | 0 mm | - | - | - |
* Rain latest hour (hover to see other rain measurements)
** Current wind speed in m/s (hover to see current wind gust speed)